Time;durP1;ratioP1;P1;durP2;ratioP2;P2;SDS_P1;SDS_P2;PMS_P1;PMS_P2;Temp;Humidity;BMP_temperature;BMP_pressure;BME280_temperature;BME280_humidity;BME280_pressure;Samples;Min_cycle;Max_cycle;Signal;HPM_P1;HPM_P2
2021/12/02 00:00:59;;;;;;;11.88;8.48;;;10.70;99.90;;;;;;4961332;28;20039;-74
2021/12/02 00:03:26;;;;;;;10.63;7.93;;;10.60;99.90;;;;;;4954883;28;20046;-71
2021/12/02 00:05:53;;;;;;;10.35;7.80;;;10.60;99.90;;;;;;4974178;28;20487;-71
2021/12/02 00:08:21;;;;;;;9.50;7.65;;;10.70;99.90;;;;;;4962858;28;20463;-77
2021/12/02 00:10:49;;;;;;;12.15;7.75;;;10.80;99.90;;;;;;4979843;28;21834;-70
2021/12/02 00:13:21;;;;;;;11.02;7.72;;;10.80;99.90;;;;;;5014193;28;20407;-71
2021/12/02 00:15:54;;;;;;;10.70;8.40;;;10.90;99.90;;;;;;5016241;28;20039;-71
2021/12/02 00:21:03;;;;;;;11.15;8.07;;;10.90;99.90;;;;;;4981416;28;20531;-71
2021/12/02 00:23:29;;;;;;;12.73;9.23;;;10.90;99.90;;;;;;4967917;28;20398;-74
2021/12/02 00:25:58;;;;;;;11.50;8.95;;;10.90;99.90;;;;;;4981735;28;20143;-74
2021/12/02 00:28:26;;;;;;;11.40;9.13;;;10.90;99.90;;;;;;4979288;28;20425;-74
2021/12/02 00:30:57;;;;;;;11.63;8.43;;;10.80;99.90;;;;;;4966282;28;20569;-70
2021/12/02 00:33:26;;;;;;;13.10;9.45;;;10.80;99.90;;;;;;4971758;28;20100;-72
2021/12/02 00:35:53;;;;;;;11.65;8.93;;;10.70;99.90;;;;;;4989400;28;20043;-71
2021/12/02 00:38:21;;;;;;;13.75;9.70;;;10.70;99.90;;;;;;4998157;28;20441;-74
2021/12/02 00:40:47;;;;;;;12.75;9.27;;;10.70;99.90;;;;;;4990659;28;20042;-73
2021/12/02 00:43:14;;;;;;;15.88;9.43;;;10.60;99.90;;;;;;5012951;28;20034;-72
2021/12/02 00:45:42;;;;;;;12.15;9.05;;;10.60;99.90;;;;;;4987690;28;20042;-72
2021/12/02 00:48:09;;;;;;;12.40;8.27;;;10.60;99.90;;;;;;4988838;28;20026;-71
2021/12/02 00:50:38;;;;;;;9.77;8.10;;;10.60;99.90;;;;;;5004093;28;20053;-71
2021/12/02 00:53:06;;;;;;;13.10;7.75;;;10.60;99.90;;;;;;5003879;28;20038;-75
2021/12/02 00:55:37;;;;;;;10.10;8.10;;;10.70;99.90;;;;;;4987970;28;20030;-71
2021/12/02 00:58:04;;;;;;;11.07;8.35;;;10.70;99.90;;;;;;4997445;28;20045;-73
2021/12/02 01:00:30;;;;;;;12.57;9.10;;;10.70;99.90;;;;;;5009585;28;20030;-71
2021/12/02 01:03:02;;;;;;;14.90;9.50;;;10.70;99.90;;;;;;5005825;28;20049;-72
2021/12/02 01:05:30;;;;;;;13.40;9.82;;;10.60;99.90;;;;;;4969506;28;20143;-73
2021/12/02 01:08:00;;;;;;;14.25;10.30;;;10.50;99.90;;;;;;4988472;28;20069;-73
2021/12/02 01:10:26;;;;;;;14.00;9.50;;;10.50;99.90;;;;;;4998008;28;20038;-72
2021/12/02 01:12:52;;;;;;;13.30;7.95;;;10.50;99.90;;;;;;5006091;28;20031;-71
2021/12/02 01:15:18;;;;;;;12.23;8.73;;;10.50;99.90;;;;;;4977433;28;20715;-71
2021/12/02 01:17:44;;;;;;;12.82;8.10;;;10.60;99.90;;;;;;4986826;28;20068;-71
2021/12/02 01:20:10;;;;;;;12.27;8.27;;;10.50;99.90;;;;;;5003493;28;20042;-72
2021/12/02 01:22:39;;;;;;;13.60;9.00;;;10.60;99.90;;;;;;5004942;28;20451;-72
2021/12/02 01:25:07;;;;;;;12.50;9.52;;;10.60;99.90;;;;;;4979386;28;20050;-72
2021/12/02 01:27:35;;;;;;;12.45;9.85;;;10.50;99.90;;;;;;4998791;28;20180;-71
2021/12/02 01:30:04;;;;;;;13.05;8.27;;;10.40;99.90;;;;;;4993621;28;20093;-72
2021/12/02 01:32:34;;;;;;;11.13;8.45;;;10.40;99.90;;;;;;4990179;28;20044;-72
2021/12/02 01:35:04;;;;;;;13.80;9.25;;;10.40;99.90;;;;;;5010708;28;20034;-73
2021/12/02 01:37:31;;;;;;;13.25;8.50;;;10.30;99.90;;;;;;5011627;28;20458;-71
2021/12/02 01:39:59;;;;;;;13.82;9.32;;;10.30;99.90;;;;;;5015533;28;20034;-71
2021/12/02 01:42:28;;;;;;;12.30;8.57;;;10.20;99.90;;;;;;5015977;28;20034;-72
2021/12/02 01:44:58;;;;;;;11.35;8.27;;;10.20;99.90;;;;;;5015474;28;20046;-73
2021/12/02 01:47:32;;;;;;;9.40;7.20;;;10.20;99.90;;;;;;5013158;28;20026;-72
2021/12/02 01:50:04;;;;;;;10.68;7.85;;;10.20;99.90;;;;;;4993178;28;20151;-73
2021/12/02 01:52:32;;;;;;;9.38;7.35;;;10.30;99.90;;;;;;4999101;28;20048;-72
2021/12/02 01:55:10;;;;;;;9.25;6.93;;;10.40;99.90;;;;;;4986605;28;20042;-71
2021/12/02 01:57:47;;;;;;;10.63;6.85;;;10.40;99.90;;;;;;5001846;28;20417;-72
2021/12/02 02:00:20;;;;;;;9.48;6.85;;;10.50;99.90;;;;;;4979120;28;20378;-71
2021/12/02 02:02:49;;;;;;;9.73;7.10;;;10.40;99.90;;;;;;4999256;28;20655;-70
2021/12/02 02:05:17;;;;;;;9.88;7.75;;;10.40;99.90;;;;;;5007150;28;20037;-72
2021/12/02 02:08:04;;;;;;;10.60;7.97;;;10.30;99.90;;;;;;5004358;28;20064;-76
2021/12/02 02:10:34;;;;;;;11.63;7.93;;;10.30;99.90;;;;;;4973346;28;20046;-72
2021/12/02 02:13:04;;;;;;;9.63;7.43;;;10.30;99.90;;;;;;4998333;28;20132;-72
2021/12/02 02:15:31;;;;;;;13.27;8.07;;;10.40;99.90;;;;;;4987502;28;20379;-70
2021/12/02 02:21:08;;;;;;;10.18;8.50;;;10.40;99.90;;;;;;4963157;28;20041;-74
2021/12/02 02:23:47;;;;;;;12.13;8.35;;;10.40;99.90;;;;;;5001248;28;20038;-74
2021/12/02 02:26:16;;;;;;;11.93;8.55;;;10.40;99.90;;;;;;5007435;28;20046;-73
2021/12/02 02:28:43;;;;;;;11.52;8.85;;;10.40;99.90;;;;;;4998407;28;20034;-75
2021/12/02 02:31:10;;;;;;;11.32;8.75;;;10.40;99.90;;;;;;5009986;28;20045;-72
2021/12/02 02:33:38;;;;;;;11.10;9.23;;;10.30;99.90;;;;;;4995168;28;20046;-72
2021/12/02 02:36:06;;;;;;;11.85;8.60;;;10.20;99.90;;;;;;5012143;28;20038;-70
2021/12/02 02:38:34;;;;;;;10.30;8.63;;;10.30;99.90;;;;;;5011364;28;20034;-73
2021/12/02 02:41:04;;;;;;;13.35;8.45;;;10.20;99.90;;;;;;5012903;28;20026;-73
2021/12/02 02:43:33;;;;;;;11.32;9.13;;;10.20;99.90;;;;;;5007835;28;20122;-78
2021/12/02 02:46:01;;;;;;;10.35;8.45;;;10.20;99.90;;;;;;5006891;28;20072;-76
2021/12/02 02:48:29;;;;;;;11.13;9.07;;;10.20;99.90;;;;;;5010654;28;20045;-72
2021/12/02 02:50:55;;;;;;;11.80;8.50;;;10.20;99.90;;;;;;4965716;28;20037;-71
2021/12/02 02:53:24;;;;;;;12.23;9.88;;;10.20;99.90;;;;;;4986772;28;20035;-72
2021/12/02 03:01:28;;;;;;;11.55;9.00;;;10.10;99.90;;;;;;5012651;28;20427;-76
2021/12/02 03:04:07;;;;;;;13.85;9.52;;;10.10;99.90;;;;;;5010546;28;20041;-74
2021/12/02 03:09:38;;;;;;;13.23;9.30;;;10.00;99.90;;;;;;5010561;28;20065;-70
2021/12/02 03:12:40;;;;;;;10.93;8.43;;;10.00;99.90;;;;;;4983744;28;20041;-71
2021/12/02 03:17:29;;;;;;;12.20;8.88;;;10.00;99.90;;;;;;5010551;28;20457;-71
2021/12/02 03:19:56;;;;;;;11.88;9.15;;;10.00;99.90;;;;;;4996877;28;20034;-70
2021/12/02 03:22:23;;;;;;;11.98;8.63;;;10.00;99.90;;;;;;5003247;28;20045;-71
2021/12/02 03:24:49;;;;;;;11.48;9.27;;;10.00;99.90;;;;;;4997023;28;20161;-71
2021/12/02 03:27:15;;;;;;;10.63;8.43;;;10.10;99.90;;;;;;5011386;28;20465;-70
2021/12/02 03:29:41;;;;;;;10.48;8.50;;;10.00;99.90;;;;;;4989118;28;20171;-71
2021/12/02 03:32:11;;;;;;;11.00;8.73;;;10.00;99.90;;;;;;4997833;28;20042;-72
2021/12/02 03:34:38;;;;;;;11.63;8.45;;;10.00;99.90;;;;;;5011632;28;20037;-71
2021/12/02 03:37:04;;;;;;;11.07;8.65;;;10.10;99.90;;;;;;5007182;28;20053;-71
2021/12/02 03:39:33;;;;;;;11.52;8.25;;;10.10;99.90;;;;;;5009473;28;20038;-70
2021/12/02 03:42:01;;;;;;;10.32;7.90;;;10.10;99.90;;;;;;4990664;28;20484;-72
2021/12/02 03:44:27;;;;;;;9.45;8.25;;;10.10;99.90;;;;;;4972704;28;20133;-71
2021/12/02 03:46:55;;;;;;;9.38;7.53;;;10.00;99.90;;;;;;5002488;28;20044;-71
2021/12/02 03:49:21;;;;;;;10.18;7.72;;;10.00;99.90;;;;;;5006793;28;20042;-74
2021/12/02 03:51:48;;;;;;;10.20;7.88;;;10.00;99.90;;;;;;4994788;28;20045;-71
2021/12/02 03:54:13;;;;;;;13.68;8.00;;;10.10;99.90;;;;;;5008088;28;20034;-70
2021/12/02 03:56:40;;;;;;;9.18;7.57;;;10.00;99.90;;;;;;4988550;28;20034;-71
2021/12/02 03:59:07;;;;;;;10.45;7.72;;;10.00;99.90;;;;;;4995544;28;20033;-74
2021/12/02 04:01:33;;;;;;;9.27;7.32;;;10.10;99.90;;;;;;5009913;28;20477;-71
2021/12/02 04:04:01;;;;;;;9.73;7.55;;;10.10;99.90;;;;;;5012917;28;20141;-73
2021/12/02 04:06:27;;;;;;;8.25;7.22;;;10.20;99.90;;;;;;5007303;28;20462;-72
2021/12/02 04:08:59;;;;;;;13.15;8.18;;;10.20;99.90;;;;;;5011047;28;20038;-72
2021/12/02 04:15:04;;;;;;;9.68;8.10;;;10.30;99.90;;;;;;5010231;28;20072;-71
2021/12/02 04:17:04;;;;;;;10.90;7.95;;;10.20;99.90;;;;;;4994363;28;20034;-72
2021/12/02 04:19:41;;;;;;;10.73;8.23;;;10.20;99.90;;;;;;4988576;28;20049;-74
2021/12/02 04:22:06;;;;;;;10.75;8.50;;;10.10;99.90;;;;;;5000446;28;20050;-72
2021/12/02 04:24:33;;;;;;;10.82;8.27;;;10.10;99.90;;;;;;5002884;28;20049;-74
2021/12/02 04:26:59;;;;;;;11.65;8.43;;;10.10;99.90;;;;;;5003643;28;20120;-71
2021/12/02 04:29:25;;;;;;;10.68;8.57;;;10.20;99.90;;;;;;5001155;28;20037;-72
2021/12/02 04:31:53;;;;;;;11.07;8.45;;;10.20;99.90;;;;;;5005933;28;20046;-76
2021/12/02 04:34:19;;;;;;;10.23;8.55;;;10.20;99.90;;;;;;5004328;28;20513;-71
2021/12/02 04:36:46;;;;;;;10.23;7.95;;;10.20;99.90;;;;;;5009079;28;20038;-73
2021/12/02 04:39:12;;;;;;;10.27;8.02;;;10.20;99.90;;;;;;5004679;28;20649;-71
2021/12/02 04:41:38;;;;;;;10.77;8.43;;;10.20;99.90;;;;;;5007294;28;20038;-72
2021/12/02 04:44:06;;;;;;;13.02;8.35;;;10.20;99.90;;;;;;5013197;28;20065;-71
2021/12/02 04:46:33;;;;;;;11.60;7.65;;;10.20;99.90;;;;;;4991887;28;21155;-72
2021/12/02 04:49:00;;;;;;;11.38;8.65;;;10.20;99.90;;;;;;5013832;28;20088;-74
2021/12/02 04:51:26;;;;;;;11.75;8.52;;;10.20;99.90;;;;;;5004528;28;20034;-71
2021/12/02 04:53:52;;;;;;;10.13;8.02;;;10.20;99.90;;;;;;4963467;28;20559;-71
2021/12/02 04:56:18;;;;;;;12.55;8.60;;;10.10;99.90;;;;;;4992679;28;20121;-75
2021/12/02 04:58:45;;;;;;;12.55;8.60;;;10.10;99.90;;;;;;4991606;28;20050;-74
2021/12/02 05:01:12;;;;;;;11.98;8.40;;;10.00;99.90;;;;;;4998647;28;20062;-71
2021/12/02 05:03:38;;;;;;;10.55;7.93;;;10.00;99.90;;;;;;4997313;28;20034;-76
2021/12/02 05:06:04;;;;;;;10.50;8.20;;;10.00;99.90;;;;;;4999378;28;20454;-72
2021/12/02 05:08:30;;;;;;;12.68;8.60;;;10.00;99.90;;;;;;5001062;28;20501;-72
2021/12/02 05:10:56;;;;;;;11.90;8.65;;;10.00;99.90;;;;;;5008976;28;20055;-74
2021/12/02 05:13:23;;;;;;;10.50;8.60;;;10.00;99.90;;;;;;4988662;28;20053;-74
2021/12/02 05:15:50;;;;;;;12.00;8.15;;;10.00;99.90;;;;;;5008057;28;20042;-71
2021/12/02 05:18:17;;;;;;;10.40;8.30;;;10.00;99.90;;;;;;5003392;28;20117;-73
2021/12/02 05:20:44;;;;;;;9.25;7.32;;;10.00;99.90;;;;;;4981758;28;20389;-72
2021/12/02 05:23:10;;;;;;;10.73;8.20;;;10.00;99.90;;;;;;5006342;28;20042;-76
2021/12/02 05:25:38;;;;;;;11.00;8.00;;;10.00;99.90;;;;;;5006719;28;20038;-72
2021/12/02 05:28:05;;;;;;;10.43;7.47;;;10.00;99.90;;;;;;4986439;28;20042;-71
2021/12/02 05:30:31;;;;;;;12.00;8.07;;;10.00;99.90;;;;;;5009822;28;20033;-71
2021/12/02 05:32:57;;;;;;;11.38;8.02;;;9.90;99.90;;;;;;5011104;28;20053;-73
2021/12/02 05:35:23;;;;;;;9.55;7.22;;;9.90;99.90;;;;;;5010673;28;20121;-75
2021/12/02 05:37:48;;;;;;;8.88;7.05;;;9.80;99.90;;;;;;5015349;28;20046;-71
2021/12/02 05:40:16;;;;;;;8.98;7.10;;;9.80;99.90;;;;;;4996187;28;20421;-73
2021/12/02 05:42:44;;;;;;;10.65;7.25;;;9.80;99.90;;;;;;4984576;28;20611;-72
2021/12/02 05:45:10;;;;;;;9.73;7.22;;;9.70;99.90;;;;;;5009339;28;20619;-76
2021/12/02 05:47:38;;;;;;;9.88;7.18;;;9.70;99.90;;;;;;5011806;28;20126;-70
2021/12/02 05:50:05;;;;;;;10.82;7.70;;;9.70;99.90;;;;;;5018197;28;20065;-74
2021/12/02 05:52:31;;;;;;;10.50;7.15;;;9.70;99.90;;;;;;5004453;28;20132;-72
2021/12/02 05:54:58;;;;;;;10.13;6.78;;;9.70;99.90;;;;;;5013335;28;20034;-70
2021/12/02 05:57:25;;;;;;;8.55;6.90;;;9.70;99.90;;;;;;5000944;28;20902;-77
2021/12/02 05:59:52;;;;;;;8.93;6.97;;;9.60;99.90;;;;;;4953597;28;20474;-71
2021/12/02 06:02:19;;;;;;;9.18;6.40;;;9.60;99.90;;;;;;5001454;28;20049;-72
2021/12/02 06:04:50;;;;;;;8.65;6.55;;;9.60;99.90;;;;;;5005633;28;20046;-72
2021/12/02 06:07:16;;;;;;;9.25;6.50;;;9.60;99.90;;;;;;5012274;28;20052;-77
2021/12/02 06:09:44;;;;;;;8.60;6.60;;;9.70;99.90;;;;;;5004338;28;20057;-72
2021/12/02 06:12:12;;;;;;;10.63;7.20;;;9.70;99.90;;;;;;4997957;28;20437;-74
2021/12/02 06:14:39;;;;;;;8.05;6.32;;;9.70;99.90;;;;;;5008007;28;20048;-72
2021/12/02 06:17:05;;;;;;;9.38;6.70;;;9.70;99.90;;;;;;5007502;28;20038;-73
2021/12/02 06:19:34;;;;;;;8.88;6.68;;;9.60;99.90;;;;;;4997593;28;20048;-72
2021/12/02 06:22:01;;;;;;;8.18;6.18;;;9.60;99.90;;;;;;4995848;28;20050;-73
2021/12/02 06:24:43;;;;;;;9.48;6.43;;;9.60;99.90;;;;;;4997562;28;20038;-75
2021/12/02 06:27:10;;;;;;;9.18;7.00;;;9.60;99.90;;;;;;4999016;28;20038;-70
2021/12/02 06:29:37;;;;;;;8.95;6.68;;;9.60;99.90;;;;;;5009527;28;20037;-73
2021/12/02 06:32:07;;;;;;;8.82;5.72;;;9.60;99.90;;;;;;4989128;28;20038;-72
2021/12/02 06:34:35;;;;;;;7.05;5.53;;;9.60;99.90;;;;;;4976948;28;20065;-73
2021/12/02 06:37:01;;;;;;;11.75;5.82;;;9.60;99.90;;;;;;4998069;28;20040;-71
2021/12/02 06:39:29;;;;;;;13.13;6.95;;;9.60;99.90;;;;;;5005728;28;20481;-74
2021/12/02 06:41:55;;;;;;;8.63;6.78;;;9.50;99.90;;;;;;5013413;28;20133;-71
2021/12/02 06:44:21;;;;;;;8.40;6.93;;;9.50;99.90;;;;;;4996051;28;20063;-73
2021/12/02 06:46:47;;;;;;;9.35;6.63;;;9.40;99.90;;;;;;4985477;28;20031;-75
2021/12/02 06:49:14;;;;;;;10.45;6.15;;;9.40;99.90;;;;;;4996565;28;20034;-71
2021/12/02 06:51:40;;;;;;;9.90;6.60;;;9.40;99.90;;;;;;5011200;28;20650;-72
2021/12/02 06:54:08;;;;;;;9.10;6.30;;;9.40;99.90;;;;;;4996775;28;20050;-73
2021/12/02 06:56:35;;;;;;;9.13;6.28;;;9.50;99.90;;;;;;4978695;28;20039;-72
2021/12/02 06:59:02;;;;;;;7.90;6.30;;;9.50;99.90;;;;;;5003100;28;20478;-73
2021/12/02 07:01:28;;;;;;;8.15;6.03;;;9.50;99.90;;;;;;4966128;28;20090;-71
2021/12/02 07:03:54;;;;;;;8.65;6.85;;;9.50;99.90;;;;;;4985622;28;20041;-72
2021/12/02 07:06:20;;;;;;;8.80;6.47;;;9.50;99.90;;;;;;5010282;28;20033;-73
2021/12/02 07:08:47;;;;;;;8.98;6.57;;;9.50;99.90;;;;;;5012852;28;20049;-72
2021/12/02 07:11:14;;;;;;;8.10;6.65;;;9.50;99.90;;;;;;4979232;28;20021;-74
2021/12/02 07:13:40;;;;;;;8.82;6.82;;;9.50;99.90;;;;;;4970189;28;20324;-70
2021/12/02 07:16:06;;;;;;;13.05;7.13;;;9.50;99.90;;;;;;5003045;28;20363;-72
2021/12/02 07:18:37;;;;;;;9.70;6.75;;;9.50;99.90;;;;;;4991713;28;20092;-73
2021/12/02 07:21:03;;;;;;;10.93;7.82;;;9.50;99.90;;;;;;4996693;28;20026;-71
2021/12/02 07:23:30;;;;;;;8.35;6.68;;;9.40;99.90;;;;;;5008057;28;20065;-71
2021/12/02 07:25:58;;;;;;;12.45;7.07;;;9.40;99.90;;;;;;5011002;28;20653;-73
2021/12/02 07:28:25;;;;;;;9.38;7.05;;;9.40;99.90;;;;;;4977950;28;20039;-73
2021/12/02 07:30:54;;;;;;;10.05;7.35;;;9.40;99.90;;;;;;4998888;28;20092;-72
2021/12/02 07:33:21;;;;;;;9.13;7.32;;;9.40;99.90;;;;;;5000292;28;20056;-74
2021/12/02 07:35:47;;;;;;;9.90;6.65;;;9.40;99.90;;;;;;5007952;28;20065;-71
2021/12/02 07:38:14;;;;;;;9.32;6.78;;;9.40;99.90;;;;;;4985694;28;20050;-75
2021/12/02 07:40:41;;;;;;;9.23;6.68;;;9.30;99.90;;;;;;4988134;28;20101;-72
2021/12/02 07:43:07;;;;;;;9.70;6.80;;;9.30;99.90;;;;;;5010048;28;20069;-72
2021/12/02 07:45:36;;;;;;;10.15;6.80;;;9.30;99.90;;;;;;5009678;28;20508;-72
2021/12/02 07:48:06;;;;;;;8.85;6.93;;;9.30;99.90;;;;;;5003872;28;20030;-75
2021/12/02 07:50:36;;;;;;;10.30;7.30;;;9.30;99.90;;;;;;5001388;28;20097;-74
2021/12/02 07:53:06;;;;;;;8.88;6.68;;;9.30;99.90;;;;;;5012013;28;20037;-72
2021/12/02 07:55:38;;;;;;;11.82;7.38;;;9.40;99.90;;;;;;4965500;28;20137;-72
2021/12/02 07:58:10;;;;;;;8.52;6.60;;;9.40;99.90;;;;;;5013529;28;20071;-75
2021/12/02 08:00:38;;;;;;;11.25;6.57;;;9.40;99.90;;;;;;5005460;28;20132;-73
2021/12/02 08:03:09;;;;;;;11.23;7.15;;;9.40;99.90;;;;;;4997507;28;20095;-72
2021/12/02 08:05:36;;;;;;;9.75;6.78;;;9.40;99.90;;;;;;5004046;28;20033;-74
2021/12/02 08:08:03;;;;;;;11.18;7.25;;;9.40;99.90;;;;;;4988679;28;20149;-72
2021/12/02 08:10:29;;;;;;;8.18;6.63;;;9.50;99.90;;;;;;4972180;28;20038;-72
2021/12/02 08:12:58;;;;;;;10.85;7.30;;;9.70;99.90;;;;;;4985470;28;20038;-74
2021/12/02 08:15:27;;;;;;;11.82;7.93;;;10.70;99.90;;;;;;4981578;28;20054;-76
2021/12/02 08:17:55;;;;;;;9.38;7.32;;;12.10;99.90;;;;;;4985314;28;20555;-72
2021/12/02 08:20:23;;;;;;;9.98;5.75;;;12.80;99.90;;;;;;4992928;28;20048;-72
2021/12/02 08:22:50;;;;;;;7.03;5.55;;;13.30;99.90;;;;;;4999547;28;20072;-74
2021/12/02 08:25:17;;;;;;;8.38;5.90;;;13.90;99.90;;;;;;4986511;28;20069;-71
2021/12/02 08:27:44;;;;;;;10.40;5.32;;;14.30;99.90;;;;;;5001884;28;20569;-77
2021/12/02 08:30:15;;;;;;;7.50;6.00;;;13.90;99.90;;;;;;4977902;28;20034;-73
2021/12/02 08:32:45;;;;;;;9.60;5.63;;;14.00;99.90;;;;;;4991605;28;20065;-76
2021/12/02 08:35:15;;;;;;;7.40;5.15;;;13.70;99.90;;;;;;4968373;28;20043;-73
2021/12/02 08:37:46;;;;;;;6.15;5.10;;;13.50;99.90;;;;;;4958829;28;20081;-76
2021/12/02 08:40:16;;;;;;;6.20;4.70;;;13.30;99.90;;;;;;4996623;28;20114;-73
2021/12/02 08:42:44;;;;;;;8.77;4.75;;;13.30;99.90;;;;;;4962532;28;20055;-73
2021/12/02 08:45:12;;;;;;;7.00;5.47;;;12.60;99.90;;;;;;4955713;28;20051;-72
2021/12/02 08:47:44;;;;;;;6.28;5.00;;;12.30;99.90;;;;;;4991911;28;20042;-72
2021/12/02 08:50:15;;;;;;;8.35;4.93;;;11.70;99.90;;;;;;4956343;28;20101;-76
2021/12/02 08:52:42;;;;;;;8.07;5.28;;;11.00;99.90;;;;;;4966629;28;20038;-71
2021/12/02 08:55:08;;;;;;;9.13;4.97;;;10.70;99.90;;;;;;4961585;28;20038;-76
2021/12/02 08:57:36;;;;;;;8.95;5.45;;;10.30;99.90;;;;;;4991052;28;20161;-77
2021/12/02 09:00:05;;;;;;;7.50;5.32;;;10.20;99.90;;;;;;4961985;28;20065;-73
2021/12/02 09:02:32;;;;;;;9.07;5.63;;;10.10;99.90;;;;;;4968665;28;20034;-72
2021/12/02 09:04:59;;;;;;;8.27;5.88;;;9.90;99.90;;;;;;4987921;28;20481;-76
2021/12/02 09:07:27;;;;;;;8.05;5.40;;;10.30;99.90;;;;;;5005914;28;20037;-74
2021/12/02 09:09:55;;;;;;;8.32;5.28;;;10.20;99.90;;;;;;4990983;28;20085;-76
2021/12/02 09:12:23;;;;;;;7.88;5.80;;;10.50;99.90;;;;;;4993171;28;20066;-71
2021/12/02 09:14:51;;;;;;;9.40;6.22;;;10.90;99.90;;;;;;5000769;28;20187;-72
2021/12/02 09:17:19;;;;;;;10.48;6.28;;;10.80;99.90;;;;;;4993777;28;20112;-77
2021/12/02 09:19:46;;;;;;;6.75;5.13;;;10.60;99.90;;;;;;5000426;28;20398;-72
2021/12/02 09:22:13;;;;;;;8.25;5.53;;;10.40;99.90;;;;;;5008107;28;20038;-75
2021/12/02 09:24:39;;;;;;;6.72;5.20;;;10.40;99.90;;;;;;5010228;28;20046;-71
2021/12/02 09:27:06;;;;;;;12.13;5.95;;;10.40;99.90;;;;;;5006819;28;20171;-75
2021/12/02 09:29:34;;;;;;;7.45;5.07;;;10.50;99.90;;;;;;5007666;28;20568;-73
2021/12/02 09:32:00;;;;;;;5.47;4.57;;;10.70;99.90;;;;;;5011106;28;20041;-77
2021/12/02 09:34:27;;;;;;;7.65;4.90;;;10.90;99.90;;;;;;5006934;28;20556;-73
2021/12/02 09:36:56;;;;;;;7.82;4.63;;;11.60;99.90;;;;;;4994972;28;20034;-72
2021/12/02 09:39:29;;;;;;;6.28;4.22;;;11.80;99.90;;;;;;4993924;28;20057;-72
2021/12/02 09:41:55;;;;;;;6.63;5.32;;;12.00;99.90;;;;;;4998272;28;20126;-72
2021/12/02 09:44:21;;;;;;;6.68;4.63;;;11.70;99.90;;;;;;5005107;28;20092;-72
2021/12/02 09:46:47;;;;;;;10.85;4.57;;;12.10;99.90;;;;;;4991289;28;20509;-72
2021/12/02 09:49:15;;;;;;;10.20;4.68;;;12.50;99.90;;;;;;4973917;28;20043;-72
2021/12/02 09:51:48;;;;;;;6.32;4.47;;;12.50;99.90;;;;;;5021534;28;20116;-72
2021/12/02 09:54:19;;;;;;;5.97;4.22;;;12.80;99.90;;;;;;5020779;28;20066;-72
2021/12/02 09:56:51;;;;;;;7.32;4.47;;;13.00;99.90;;;;;;5006232;28;20038;-73
2021/12/02 09:59:34;;;;;;;6.03;4.15;;;13.40;99.90;;;;;;4998369;28;20615;-71
2021/12/02 10:02:04;;;;;;;4.38;3.85;;;13.60;99.90;;;;;;5008547;28;20053;-72
2021/12/02 10:04:42;;;;;;;6.68;4.15;;;13.60;99.90;;;;;;4973432;28;20074;-72
2021/12/02 10:07:22;;;;;;;5.88;3.67;;;13.30;99.90;;;;;;4981580;28;20095;-74
2021/12/02 10:12:34;;;;;;;5.50;3.90;;;13.50;99.90;;;;;;5004196;28;20072;-74
2021/12/02 10:15:06;;;;;;;6.97;4.18;;;13.50;99.90;;;;;;4996637;28;20053;-73
2021/12/02 10:23:23;;;;;;;4.17;3.43;;;14.30;99.90;;;;;;5011707;28;20044;-73
2021/12/02 10:26:01;;;;;;;5.95;3.75;;;14.30;99.90;;;;;;4986277;28;20414;-79
2021/12/02 10:28:31;;;;;;;7.10;4.03;;;14.80;99.90;;;;;;4992373;28;20037;-75
2021/12/02 10:31:02;;;;;;;4.93;3.97;;;14.80;99.90;;;;;;5012341;28;20040;-76
2021/12/02 10:33:45;;;;;;;5.00;3.58;;;14.90;99.90;;;;;;4995866;28;20049;-71
2021/12/02 10:36:40;;;;;;;8.23;3.83;;;14.90;99.90;;;;;;5010956;28;20046;-71
2021/12/02 10:39:16;;;;;;;5.00;3.40;;;14.80;99.90;;;;;;5012391;28;20038;-72
2021/12/02 10:41:45;;;;;;;4.68;3.33;;;15.10;99.90;;;;;;5011883;28;20069;-72
2021/12/02 10:44:24;;;;;;;11.13;3.53;;;14.70;99.90;;;;;;5014129;28;20436;-72
2021/12/02 10:47:10;;;;;;;7.72;3.13;;;15.60;99.90;;;;;;5010247;28;20037;-72
2021/12/02 10:49:50;;;;;;;5.97;2.90;;;16.30;99.90;;;;;;4993000;28;20088;-72
2021/12/02 10:52:20;;;;;;;5.88;3.38;;;16.50;99.80;;;;;;5003718;28;20034;-73
2021/12/02 10:54:51;;;;;;;5.85;3.25;;;17.00;99.20;;;;;;5011995;28;20065;-75
2021/12/02 10:57:30;;;;;;;4.35;2.90;;;16.90;98.20;;;;;;5008051;28;20041;-72
2021/12/02 11:00:12;;;;;;;7.00;3.95;;;17.50;98.00;;;;;;5001009;28;20085;-76
2021/12/02 11:02:43;;;;;;;8.32;3.92;;;17.70;97.60;;;;;;4992831;28;20064;-73
2021/12/02 11:05:40;;;;;;;7.03;3.70;;;18.10;97.10;;;;;;4974932;28;20110;-75
2021/12/02 11:08:10;;;;;;;3.95;3.15;;;18.10;96.70;;;;;;5004602;28;20452;-72
2021/12/02 11:10:48;;;;;;;5.55;3.67;;;18.10;96.40;;;;;;4990024;28;20378;-75
2021/12/02 11:13:26;;;;;;;6.03;3.50;;;18.20;96.70;;;;;;5007702;28;20184;-72
2021/12/02 11:15:55;;;;;;;5.78;3.40;;;18.40;96.20;;;;;;5005161;28;20504;-70
2021/12/02 11:18:23;;;;;;;6.13;3.88;;;17.70;97.00;;;;;;5004655;28;20033;-73
2021/12/02 11:20:56;;;;;;;5.30;4.00;;;18.00;96.20;;;;;;5010392;28;20558;-77
2021/12/02 11:23:30;;;;;;;5.50;3.92;;;17.70;96.40;;;;;;5007944;28;20037;-73
2021/12/02 11:26:03;;;;;;;4.97;3.63;;;17.70;96.90;;;;;;4997531;28;20073;-76
2021/12/02 11:28:35;;;;;;;4.50;3.50;;;18.10;96.40;;;;;;4999244;28;20402;-75
2021/12/02 11:31:28;;;;;;;6.00;4.00;;;18.10;96.00;;;;;;4999960;28;20133;-73
2021/12/02 11:33:56;;;;;;;5.03;3.97;;;18.90;96.00;;;;;;4997241;28;20037;-71
2021/12/02 11:36:30;;;;;;;6.30;3.92;;;19.20;95.30;;;;;;5010941;28;20038;-71
2021/12/02 11:39:03;;;;;;;4.50;3.45;;;19.30;94.80;;;;;;5010975;28;20444;-75
2021/12/02 11:41:30;;;;;;;6.05;4.22;;;19.70;94.80;;;;;;4992947;28;20434;-72
2021/12/02 11:43:57;;;;;;;6.40;4.07;;;19.80;94.50;;;;;;4986598;28;20109;-73
2021/12/02 11:46:24;;;;;;;5.43;3.75;;;19.60;94.40;;;;;;4983127;28;20579;-72
2021/12/02 11:48:51;;;;;;;4.25;3.70;;;20.10;93.70;;;;;;4997982;28;20481;-73
2021/12/02 11:51:20;;;;;;;8.27;3.60;;;19.80;93.50;;;;;;4984954;28;20076;-72
2021/12/02 11:53:46;;;;;;;6.07;4.00;;;20.40;93.50;;;;;;4963598;28;20034;-72
2021/12/02 11:56:17;;;;;;;6.18;3.80;;;20.10;93.40;;;;;;4982863;28;20451;-71
2021/12/02 11:58:45;;;;;;;7.10;3.42;;;20.10;93.30;;;;;;5010973;28;20048;-76
2021/12/02 12:01:18;;;;;;;4.45;3.83;;;20.40;93.00;;;;;;4989105;28;20044;-73
2021/12/02 12:03:53;;;;;;;4.45;3.63;;;18.50;93.50;;;;;;4996460;28;20046;-73
2021/12/02 12:06:24;;;;;;;6.70;3.60;;;19.10;93.90;;;;;;4988339;28;20069;-72
2021/12/02 12:08:51;;;;;;;5.37;3.70;;;18.80;94.00;;;;;;4988557;28;20046;-74
2021/12/02 12:11:19;;;;;;;5.43;3.65;;;19.00;93.40;;;;;;5008421;28;20587;-71
2021/12/02 12:13:51;;;;;;;6.63;3.72;;;19.10;92.80;;;;;;5004494;28;20045;-72
2021/12/02 12:16:30;;;;;;;5.32;3.60;;;19.40;92.90;;;;;;5000779;28;20027;-74
2021/12/02 12:19:29;;;;;;;5.40;3.55;;;19.30;92.50;;;;;;4992168;28;20040;-75
2021/12/02 12:21:58;;;;;;;5.32;3.10;;;20.30;92.50;;;;;;4976843;28;20155;-75
2021/12/02 12:24:57;;;;;;;5.18;3.25;;;21.20;91.60;;;;;;4996296;28;20049;-72
2021/12/02 12:27:26;;;;;;;6.13;3.30;;;20.90;91.30;;;;;;5003308;28;20054;-75
2021/12/02 12:30:22;;;;;;;5.75;2.85;;;20.10;91.10;;;;;;5002962;28;20103;-75
2021/12/02 12:38:26;;;;;;;12.82;3.20;;;19.30;91.60;;;;;;5013060;28;20040;-76
2021/12/02 12:40:59;;;;;;;4.68;2.90;;;19.60;91.30;;;;;;5000235;28;20034;-73
2021/12/02 12:43:38;;;;;;;4.32;3.15;;;20.50;91.00;;;;;;5013919;28;20041;-73
2021/12/02 12:46:09;;;;;;;5.90;3.15;;;19.80;90.90;;;;;;4989141;28;20481;-75
2021/12/02 12:48:35;;;;;;;3.67;2.55;;;19.80;90.60;;;;;;5014268;28;20047;-74
2021/12/02 12:51:33;;;;;;;4.00;2.45;;;20.30;90.20;;;;;;4989748;28;20069;-75
2021/12/02 12:54:03;;;;;;;3.65;2.50;;;19.30;90.50;;;;;;4996471;28;20054;-73
2021/12/02 12:56:38;;;;;;;3.28;2.45;;;19.70;89.30;;;;;;5000937;28;20030;-73
2021/12/02 12:59:09;;;;;;;3.35;2.45;;;20.40;89.20;;;;;;5010780;28;20536;-78
2021/12/02 13:01:41;;;;;;;3.40;2.53;;;20.20;88.10;;;;;;4975245;28;20046;-72
2021/12/02 13:04:08;;;;;;;3.63;2.22;;;21.00;87.20;;;;;;5015674;28;20053;-76
2021/12/02 13:07:11;;;;;;;3.08;1.92;;;20.80;87.60;;;;;;5006666;28;20026;-72
2021/12/02 13:09:53;;;;;;;3.25;2.15;;;21.00;86.70;;;;;;4990560;28;20045;-73
2021/12/02 13:12:27;;;;;;;4.30;1.67;;;19.70;87.30;;;;;;4995813;28;20025;-73
2021/12/02 13:14:54;;;;;;;2.67;1.90;;;19.50;87.10;;;;;;4993200;28;20045;-73
2021/12/02 13:17:44;;;;;;;3.28;1.67;;;19.30;88.10;;;;;;4997939;28;20088;-72
2021/12/02 13:20:39;;;;;;;2.80;1.83;;;20.20;85.90;;;;;;5003659;28;20913;-72
2021/12/02 13:23:27;;;;;;;2.90;1.90;;;21.00;86.20;;;;;;4997030;28;20040;-74
2021/12/02 13:26:06;;;;;;;2.38;1.73;;;21.90;84.10;;;;;;5006849;28;20104;-73
2021/12/02 13:28:42;;;;;;;2.28;1.83;;;21.60;84.10;;;;;;5000262;28;20044;-72
2021/12/02 13:31:11;;;;;;;2.83;1.70;;;21.50;84.10;;;;;;5018558;28;20508;-74
2021/12/02 13:33:42;;;;;;;3.30;2.20;;;22.00;84.10;;;;;;5023849;28;20042;-72